Time;durP1;ratioP1;P1;durP2;ratioP2;P2;SDS_P1;SDS_P2;PMS_P1;PMS_P2;Temp;Humidity;BMP_temperature;BMP_pressure;BME280_temperature;BME280_humidity;BME280_pressure;Samples;Min_cycle;Max_cycle;Signal;HPM_P1;HPM_P2
2022/06/23 00:02:04;;;;;;;6.75;4.10;;;19.70;92.90;;;;;;5068588;28;20037;-35
2022/06/23 00:04:42;;;;;;;5.57;3.80;;;19.60;93.10;;;;;;5067917;28;20459;-36
2022/06/23 00:07:24;;;;;;;7.45;3.63;;;19.60;93.20;;;;;;5068199;28;20885;-34
2022/06/23 00:09:55;;;;;;;5.55;3.80;;;19.60;93.20;;;;;;5066517;28;20472;-34
2022/06/23 00:12:36;;;;;;;4.65;3.80;;;19.50;93.30;;;;;;5068465;28;20032;-34
2022/06/23 00:15:01;;;;;;;7.55;4.03;;;19.50;93.50;;;;;;5065417;28;20024;-36
2022/06/23 00:17:34;;;;;;;5.57;3.63;;;19.50;93.60;;;;;;5068105;28;20507;-35
2022/06/23 00:20:06;;;;;;;5.65;4.15;;;19.50;93.80;;;;;;5067235;28;20036;-36
2022/06/23 00:22:32;;;;;;;6.00;3.88;;;19.40;93.70;;;;;;5068239;28;20044;-42
2022/06/23 00:25:01;;;;;;;5.70;3.55;;;19.40;93.70;;;;;;5068030;28;20059;-34
2022/06/23 00:27:31;;;;;;;5.22;3.63;;;19.40;93.80;;;;;;5067205;28;20051;-35
2022/06/23 00:30:05;;;;;;;7.25;4.03;;;19.30;93.80;;;;;;5068640;28;20425;-34
2022/06/23 00:32:30;;;;;;;6.07;3.97;;;19.40;93.90;;;;;;5067978;28;20089;-35
2022/06/23 00:35:00;;;;;;;5.43;3.72;;;19.30;94.00;;;;;;5067611;28;20029;-35
2022/06/23 00:37:27;;;;;;;7.43;3.70;;;19.30;94.00;;;;;;5066999;28;20476;-35
2022/06/23 00:40:10;;;;;;;7.70;4.40;;;19.30;94.10;;;;;;5068346;28;20044;-37
2022/06/23 00:42:50;;;;;;;5.82;3.75;;;19.20;94.20;;;;;;5047236;28;20391;-35
2022/06/23 00:45:25;;;;;;;4.93;3.72;;;19.20;94.20;;;;;;5063396;28;20032;-35
2022/06/23 00:48:11;;;;;;;4.47;3.30;;;19.20;94.20;;;;;;5048981;28;20029;-36
2022/06/23 00:50:56;;;;;;;5.18;3.80;;;19.20;94.30;;;;;;5065455;28;20044;-36
2022/06/23 00:53:30;;;;;;;5.32;3.88;;;19.10;94.30;;;;;;5068047;28;20033;-34
2022/06/23 00:56:18;;;;;;;6.20;4.13;;;19.10;94.30;;;;;;5067510;28;20027;-36
2022/06/23 00:58:49;;;;;;;5.03;3.88;;;19.10;94.40;;;;;;5067897;28;20051;-35
2022/06/23 01:01:43;;;;;;;6.50;3.80;;;19.10;94.40;;;;;;5067242;28;20454;-35
2022/06/23 01:04:20;;;;;;;7.97;4.25;;;19.10;94.40;;;;;;5066257;28;20460;-35
2022/06/23 01:06:52;;;;;;;5.13;3.60;;;19.10;94.40;;;;;;5064193;28;20025;-35
2022/06/23 01:09:41;;;;;;;5.57;3.50;;;19.10;94.40;;;;;;5066363;28;20020;-35
2022/06/23 01:12:21;;;;;;;5.10;3.20;;;19.10;94.40;;;;;;5066466;28;20044;-34
2022/06/23 01:14:54;;;;;;;7.38;3.58;;;19.10;94.40;;;;;;5067318;28;20458;-36
2022/06/23 01:17:42;;;;;;;6.60;3.90;;;19.10;94.40;;;;;;5066259;28;20028;-36
2022/06/23 01:20:20;;;;;;;5.32;3.28;;;19.10;94.40;;;;;;5067563;28;20407;-35
2022/06/23 01:22:49;;;;;;;4.68;3.20;;;19.00;94.30;;;;;;5057702;28;20182;-34
2022/06/23 01:25:52;;;;;;;3.60;3.20;;;19.10;94.30;;;;;;5065949;28;20020;-35
2022/06/23 01:28:19;;;;;;;;;;;19.00;94.30;;;;;;5061126;28;20515;-34
2022/06/23 01:31:10;;;;;;;5.68;3.17;;;19.10;94.30;;;;;;5065692;28;19920;-35
2022/06/23 01:33:43;;;;;;;3.75;3.10;;;19.00;94.20;;;;;;5066967;28;20547;-35
2022/06/23 01:36:19;;;;;;;3.70;2.78;;;19.00;94.20;;;;;;5067145;28;20230;-35
2022/06/23 01:39:11;;;;;;;6.20;3.28;;;19.00;94.20;;;;;;5065987;28;20394;-35
2022/06/23 01:41:47;;;;;;;3.53;2.90;;;19.00;94.30;;;;;;5066779;28;20059;-34
2022/06/23 01:44:40;;;;;;;3.80;3.40;;;18.90;94.20;;;;;;5066746;28;20032;-36
2022/06/23 01:47:19;;;;;;;4.47;3.45;;;18.90;94.30;;;;;;5067333;28;20027;-35
2022/06/23 01:49:47;;;;;;;5.28;4.00;;;18.90;94.40;;;;;;5066450;28;20028;-35
2022/06/23 01:52:18;;;;;;;5.50;3.75;;;18.80;94.40;;;;;;5065869;28;20086;-35
2022/06/23 01:54:46;;;;;;;4.05;3.50;;;18.80;94.50;;;;;;5067038;28;20032;-36
2022/06/23 01:57:54;;;;;;;4.38;3.20;;;18.80;94.50;;;;;;5066363;28;20021;-35
2022/06/23 02:00:23;;;;;;;6.13;3.85;;;18.80;94.50;;;;;;4944994;29;20047;-35
2022/06/23 02:03:18;;;;;;;4.68;3.63;;;18.80;94.60;;;;;;5048414;28;20040;-35
2022/06/23 02:06:21;;;;;;;6.38;4.05;;;18.70;94.60;;;;;;5045955;28;20131;-35
2022/06/23 02:08:49;;;;;;;;;;;18.70;94.70;;;;;;5061185;28;20089;-34
2022/06/23 02:11:38;;;;;;;6.68;3.80;;;18.70;94.70;;;;;;5065532;28;19916;-36
2022/06/23 02:14:27;;;;;;;7.55;3.92;;;18.60;94.70;;;;;;5065204;28;20464;-35
2022/06/23 02:17:12;;;;;;;6.60;4.05;;;18.60;94.80;;;;;;5065067;28;20206;-36
2022/06/23 02:19:44;;;;;;;4.63;3.92;;;18.50;94.90;;;;;;5055577;28;20039;-35
2022/06/23 02:22:20;;;;;;;5.47;4.10;;;18.50;94.90;;;;;;5065587;28;20060;-36
2022/06/23 02:24:52;;;;;;;8.45;4.60;;;18.50;95.00;;;;;;5055235;28;20111;-35
2022/06/23 02:27:37;;;;;;;4.47;3.90;;;18.50;95.10;;;;;;5064779;28;20056;-36
2022/06/23 02:30:11;;;;;;;4.18;3.78;;;18.50;95.20;;;;;;5057050;28;20064;-38
2022/06/23 02:32:39;;;;;;;4.90;4.13;;;18.50;95.20;;;;;;5065510;28;20100;-36
2022/06/23 02:35:20;;;;;;;4.20;3.80;;;18.50;95.10;;;;;;5065314;28;20035;-35
2022/06/23 02:37:51;;;;;;;4.88;3.30;;;18.40;95.10;;;;;;5065744;28;20020;-38
2022/06/23 02:40:31;;;;;;;3.58;3.25;;;18.40;95.10;;;;;;5065780;28;20032;-34
2022/06/23 02:43:36;;;;;;;3.90;3.47;;;18.40;95.10;;;;;;5065683;28;20375;-36
2022/06/23 02:46:28;;;;;;;5.78;3.63;;;18.40;95.40;;;;;;5065916;28;20036;-36
2022/06/23 02:49:14;;;;;;;5.38;3.20;;;18.40;95.10;;;;;;5065427;28;20039;-35
2022/06/23 02:51:40;;;;;;;6.18;3.40;;;18.40;95.10;;;;;;5065349;28;20450;-34
2022/06/23 02:54:24;;;;;;;5.05;3.58;;;18.40;95.10;;;;;;5065155;28;20028;-35
2022/06/23 02:56:59;;;;;;;6.00;3.95;;;18.40;95.10;;;;;;5065237;28;20154;-34
2022/06/23 03:00:03;;;;;;;4.68;3.83;;;18.40;95.10;;;;;;5065386;28;20052;-35
2022/06/23 03:02:28;;;;;;;5.72;3.60;;;18.40;95.10;;;;;;4977921;28;20045;-35
2022/06/23 03:05:01;;;;;;;5.90;3.40;;;18.40;95.10;;;;;;5061899;28;20498;-35
2022/06/23 03:07:42;;;;;;;5.32;3.22;;;18.40;95.10;;;;;;5044981;28;20083;-35
2022/06/23 03:10:16;;;;;;;5.57;3.28;;;18.40;95.10;;;;;;5062095;28;20055;-35
2022/06/23 03:12:51;;;;;;;5.00;3.47;;;18.40;95.10;;;;;;5065661;28;20036;-36
2022/06/23 03:15:25;;;;;;;4.90;3.25;;;18.40;95.10;;;;;;5065866;28;20041;-35
2022/06/23 03:18:02;;;;;;;5.28;3.65;;;18.30;95.10;;;;;;5044755;28;20063;-36
2022/06/23 03:20:58;;;;;;;5.25;3.30;;;18.30;95.10;;;;;;5060941;28;20036;-38
2022/06/23 03:23:31;;;;;;;6.88;4.15;;;18.30;95.20;;;;;;5043980;28;20217;-35
2022/06/23 03:26:02;;;;;;;5.50;3.97;;;18.30;95.20;;;;;;5063560;28;20038;-35
2022/06/23 03:28:53;;;;;;;4.55;3.30;;;18.20;95.20;;;;;;5064814;28;20032;-35
2022/06/23 03:31:31;;;;;;;5.05;3.42;;;18.30;95.20;;;;;;5063224;28;20098;-35
2022/06/23 03:34:17;;;;;;;4.13;3.05;;;18.30;95.20;;;;;;5064765;28;20686;-35
2022/06/23 03:36:45;;;;;;;5.93;3.33;;;18.20;95.20;;;;;;5062405;28;20391;-34
2022/06/23 03:42:39;;;;;;;4.32;3.92;;;18.20;95.30;;;;;;5054095;28;20260;-35
2022/06/23 03:45:20;;;;;;;5.30;3.67;;;18.20;95.40;;;;;;5064739;28;20028;-35
2022/06/23 03:48:00;;;;;;;5.15;3.40;;;18.20;95.40;;;;;;5064388;28;20029;-35
2022/06/23 03:50:33;;;;;;;3.88;3.22;;;18.10;95.30;;;;;;5065485;28;20083;-35
2022/06/23 03:53:07;;;;;;;6.00;3.70;;;18.20;95.40;;;;;;5064535;28;20384;-35
2022/06/23 03:55:48;;;;;;;5.50;3.58;;;18.20;95.40;;;;;;5064443;28;20033;-36
2022/06/23 03:58:23;;;;;;;5.10;3.60;;;18.20;95.40;;;;;;5064473;28;20047;-34
2022/06/23 04:01:24;;;;;;;4.38;3.85;;;18.10;95.40;;;;;;5064926;28;20024;-35
2022/06/23 04:04:16;;;;;;;5.97;3.65;;;18.10;95.40;;;;;;5015549;28;20048;-35
2022/06/23 04:06:44;;;;;;;5.40;3.25;;;18.10;95.40;;;;;;5057354;28;20035;-35
2022/06/23 04:09:22;;;;;;;5.28;3.55;;;18.10;95.40;;;;;;5064976;28;20028;-35
2022/06/23 04:12:03;;;;;;;4.38;3.47;;;18.20;95.40;;;;;;5065316;28;20123;-35
2022/06/23 04:14:42;;;;;;;6.00;3.40;;;18.20;95.40;;;;;;5064865;28;20052;-35
2022/06/23 04:17:16;;;;;;;5.32;3.50;;;18.20;95.40;;;;;;5064476;28;20479;-34
2022/06/23 04:19:49;;;;;;;6.13;3.60;;;18.20;95.40;;;;;;5065903;28;20097;-35
2022/06/23 04:22:22;;;;;;;7.20;3.58;;;18.20;95.30;;;;;;5068265;28;20028;-36
2022/06/23 04:24:52;;;;;;;3.70;3.30;;;18.30;95.40;;;;;;5068627;28;20043;-35
2022/06/23 04:27:27;;;;;;;4.15;2.83;;;18.30;95.40;;;;;;5067255;28;20635;-34
2022/06/23 04:29:55;;;;;;;4.82;3.17;;;18.30;95.30;;;;;;5067204;28;20032;-35
2022/06/23 04:32:24;;;;;;;5.38;3.90;;;18.30;95.30;;;;;;5066670;28;20028;-36
2022/06/23 04:35:01;;;;;;;5.00;3.70;;;18.30;95.40;;;;;;5067442;28;20116;-35
2022/06/23 04:38:04;;;;;;;6.10;3.55;;;18.30;95.40;;;;;;5066987;28;20071;-35
2022/06/23 04:40:33;;;;;;;3.47;3.03;;;18.30;95.40;;;;;;5047014;28;20047;-34
2022/06/23 04:43:16;;;;;;;5.30;3.80;;;18.30;95.30;;;;;;5062235;28;20456;-35
2022/06/23 04:45:59;;;;;;;5.43;3.80;;;18.30;95.30;;;;;;5048428;28;20059;-35
2022/06/23 04:48:41;;;;;;;4.43;3.20;;;18.30;95.30;;;;;;5063487;28;20029;-36
2022/06/23 04:51:30;;;;;;;4.75;3.42;;;18.40;95.30;;;;;;5067523;28;20068;-36
2022/06/23 04:54:15;;;;;;;4.38;3.30;;;18.40;95.30;;;;;;5067557;28;20020;-36
2022/06/23 04:56:57;;;;;;;6.18;3.78;;;18.40;95.30;;;;;;5067258;28;20315;-35
2022/06/23 04:59:37;;;;;;;4.32;3.47;;;18.40;95.30;;;;;;5063960;28;20087;-35
2022/06/23 05:02:48;;;;;;;4.70;3.72;;;18.50;95.30;;;;;;5067479;28;20032;-34
2022/06/23 05:05:18;;;;;;;5.85;3.53;;;18.50;95.30;;;;;;5058617;28;20021;-35
2022/06/23 05:07:53;;;;;;;4.28;3.30;;;18.50;95.20;;;;;;5067454;28;20024;-34
2022/06/23 05:10:30;;;;;;;4.15;3.47;;;18.50;95.20;;;;;;5057590;28;20073;-34
2022/06/23 05:13:23;;;;;;;4.55;3.28;;;18.60;95.20;;;;;;5067458;28;20103;-36
2022/06/23 05:16:18;;;;;;;4.85;3.58;;;18.60;95.20;;;;;;5060097;28;20170;-36
2022/06/23 05:18:47;;;;;;;4.40;3.22;;;18.60;95.20;;;;;;5067030;28;20035;-35
2022/06/23 05:21:29;;;;;;;5.47;3.78;;;18.70;95.20;;;;;;5067918;28;20021;-33
2022/06/23 05:24:00;;;;;;;5.10;3.70;;;18.70;95.20;;;;;;5066718;28;20024;-35
2022/06/23 05:26:37;;;;;;;3.80;3.47;;;18.70;95.20;;;;;;5066938;28;20618;-36
2022/06/23 05:29:18;;;;;;;4.38;3.53;;;18.70;95.10;;;;;;5067864;28;20115;-37
2022/06/23 05:31:47;;;;;;;3.92;3.40;;;18.80;95.10;;;;;;5046628;28;20087;-35
2022/06/23 05:34:19;;;;;;;4.72;3.60;;;18.80;95.10;;;;;;5057287;28;20028;-35
2022/06/23 05:36:55;;;;;;;5.38;3.58;;;18.80;95.00;;;;;;5064928;28;20396;-35
2022/06/23 05:39:37;;;;;;;5.88;3.63;;;18.80;95.10;;;;;;5063801;28;20016;-35
2022/06/23 05:42:12;;;;;;;3.78;3.40;;;18.90;95.00;;;;;;5069212;28;20059;-35
2022/06/23 05:44:51;;;;;;;6.13;4.20;;;19.00;95.00;;;;;;5064312;28;20062;-36
2022/06/23 05:47:19;;;;;;;4.63;3.75;;;19.00;94.90;;;;;;5066100;28;20242;-36
2022/06/23 05:49:57;;;;;;;5.60;3.28;;;19.00;94.90;;;;;;5070123;28;20050;-35
2022/06/23 05:52:41;;;;;;;4.03;3.35;;;19.00;94.90;;;;;;5068231;28;20488;-35
2022/06/23 05:55:29;;;;;;;6.45;3.67;;;19.00;94.90;;;;;;5065392;28;20035;-35
2022/06/23 05:58:16;;;;;;;5.32;3.33;;;19.10;94.90;;;;;;5064823;28;20033;-36
2022/06/23 06:00:50;;;;;;;3.95;2.85;;;19.10;94.80;;;;;;5064807;28;20036;-36
2022/06/23 06:03:32;;;;;;;5.38;3.40;;;19.10;94.80;;;;;;5045587;28;20596;-34
2022/06/23 06:06:01;;;;;;;4.68;3.10;;;19.20;94.80;;;;;;5060811;28;20039;-35
2022/06/23 06:08:34;;;;;;;3.85;3.10;;;19.20;94.70;;;;;;5045745;28;20063;-35
2022/06/23 06:11:03;;;;;;;4.15;3.40;;;19.30;94.60;;;;;;5060579;28;20051;-35
2022/06/23 06:13:35;;;;;;;3.58;3.28;;;19.30;94.60;;;;;;5064853;28;20486;-35
2022/06/23 06:16:04;;;;;;;4.70;3.50;;;19.30;94.60;;;;;;5065533;28;20028;-35
2022/06/23 06:18:37;;;;;;;3.50;3.10;;;19.30;94.50;;;;;;5063321;28;20071;-35
2022/06/23 06:21:07;;;;;;;5.47;3.63;;;19.40;94.50;;;;;;5065267;28;20032;-35
2022/06/23 06:23:36;;;;;;;5.20;3.90;;;19.40;94.50;;;;;;5066171;28;20112;-35
2022/06/23 06:26:03;;;;;;;6.72;3.50;;;19.50;94.50;;;;;;5065756;28;20373;-35
2022/06/23 06:28:32;;;;;;;3.92;3.35;;;19.50;94.50;;;;;;5066110;28;20483;-34
2022/06/23 06:31:23;;;;;;;4.22;3.35;;;19.50;94.40;;;;;;5065879;28;20051;-34
2022/06/23 06:33:55;;;;;;;3.35;3.05;;;19.60;94.40;;;;;;5065800;28;20479;-33
2022/06/23 06:36:28;;;;;;;5.20;4.03;;;19.60;94.40;;;;;;5065159;28;20027;-34
2022/06/23 06:39:01;;;;;;;4.65;3.75;;;19.70;94.40;;;;;;5066016;28;20039;-36
2022/06/23 06:41:27;;;;;;;4.15;3.20;;;19.70;94.30;;;;;;5063921;28;20028;-34
2022/06/23 06:43:53;;;;;;;5.15;3.65;;;19.80;94.30;;;;;;5066211;28;20447;-34
2022/06/23 06:46:19;;;;;;;5.32;3.08;;;19.80;94.30;;;;;;5065086;28;20028;-36
2022/06/23 06:48:44;;;;;;;5.97;3.63;;;19.80;94.30;;;;;;5064423;28;20050;-36
2022/06/23 06:51:21;;;;;;;5.72;3.25;;;19.90;94.30;;;;;;5065052;28;20055;-35
2022/06/23 06:53:55;;;;;;;4.03;2.63;;;19.90;94.30;;;;;;5054351;28;20028;-36
2022/06/23 06:56:48;;;;;;;5.18;3.13;;;20.00;94.20;;;;;;5064956;28;20234;-35
2022/06/23 06:59:36;;;;;;;4.60;3.00;;;20.10;94.30;;;;;;5058119;28;20139;-36
2022/06/23 07:02:21;;;;;;;3.35;2.97;;;20.20;94.20;;;;;;5064512;28;20054;-36
2022/06/23 07:05:04;;;;;;;3.95;3.05;;;20.20;94.20;;;;;;5065310;28;20113;-36
2022/06/23 07:07:35;;;;;;;4.05;3.10;;;20.20;94.20;;;;;;5064736;28;20072;-37
2022/06/23 07:10:34;;;;;;;3.22;3.00;;;20.30;94.20;;;;;;5064293;28;20161;-36
2022/06/23 07:13:07;;;;;;;3.38;2.92;;;20.40;94.20;;;;;;5064590;28;20047;-36
2022/06/23 07:15:40;;;;;;;3.83;3.42;;;20.40;94.20;;;;;;5064310;28;20029;-35
2022/06/23 07:18:14;;;;;;;4.57;3.20;;;20.40;94.20;;;;;;5065536;28;20029;-36
2022/06/23 07:20:52;;;;;;;4.82;3.60;;;20.50;94.10;;;;;;5065208;28;20024;-34
2022/06/23 07:23:36;;;;;;;5.78;3.50;;;20.60;94.10;;;;;;5063996;28;20024;-35
2022/06/23 07:26:32;;;;;;;3.58;3.20;;;20.70;94.10;;;;;;5063835;28;20115;-36
2022/06/23 07:29:18;;;;;;;4.00;3.58;;;20.70;94.00;;;;;;5062184;28;20479;-37
2022/06/23 07:32:02;;;;;;;5.32;2.75;;;20.80;94.00;;;;;;5065280;28;20292;-36
2022/06/23 07:34:32;;;;;;;3.55;2.90;;;20.90;94.00;;;;;;5066696;28;20019;-37
2022/06/23 07:36:59;;;;;;;3.20;2.90;;;20.90;93.90;;;;;;5074345;28;20030;-34
2022/06/23 07:39:34;;;;;;;3.67;2.88;;;21.00;93.90;;;;;;5065585;28;20021;-35
2022/06/23 07:42:28;;;;;;;3.88;2.88;;;21.00;93.90;;;;;;5065593;28;20118;-36
2022/06/23 07:45:02;;;;;;;5.28;3.20;;;21.10;93.90;;;;;;5026112;28;20102;-35
2022/06/23 07:47:28;;;;;;;3.88;2.65;;;21.10;93.80;;;;;;5065403;28;20042;-35
2022/06/23 07:49:54;;;;;;;4.75;3.22;;;21.20;93.80;;;;;;5065413;28;20458;-36
2022/06/23 07:52:20;;;;;;;4.65;3.47;;;21.30;93.80;;;;;;5064921;28;20024;-37
2022/06/23 07:54:49;;;;;;;4.25;3.20;;;21.30;93.70;;;;;;5067940;28;20033;-35
2022/06/23 07:57:14;;;;;;;3.42;3.13;;;21.40;93.70;;;;;;5067591;28;20043;-36
2022/06/23 07:59:51;;;;;;;3.45;2.83;;;21.50;93.60;;;;;;5068108;28;20076;-34
2022/06/23 08:02:31;;;;;;;3.78;2.90;;;21.50;93.60;;;;;;5047865;28;20057;-37
2022/06/23 08:05:11;;;;;;;2.90;2.70;;;21.60;93.60;;;;;;5064673;28;20028;-36
2022/06/23 08:07:38;;;;;;;3.25;2.95;;;21.70;93.50;;;;;;5048350;28;20032;-36
2022/06/23 08:10:11;;;;;;;3.13;2.83;;;21.80;93.40;;;;;;5064504;28;20445;-35
2022/06/23 08:12:55;;;;;;;4.53;3.28;;;21.80;93.40;;;;;;5054566;28;20020;-37
2022/06/23 08:18:19;;;;;;;3.40;2.78;;;21.90;93.40;;;;;;5068341;28;20059;-35
2022/06/23 08:20:58;;;;;;;4.97;3.97;;;22.00;93.40;;;;;;5067819;28;20038;-36
2022/06/23 08:23:24;;;;;;;3.92;3.40;;;22.00;93.40;;;;;;5067919;28;20024;-37
2022/06/23 08:25:50;;;;;;;3.42;2.95;;;22.10;93.40;;;;;;5067626;28;20443;-36
2022/06/23 08:28:16;;;;;;;5.38;3.30;;;22.20;93.40;;;;;;5068599;28;20063;-35
2022/06/23 08:30:42;;;;;;;4.07;2.58;;;22.20;93.20;;;;;;5068085;28;20332;-36
2022/06/23 08:33:08;;;;;;;5.20;3.00;;;22.30;93.20;;;;;;5067894;28;20062;-35
2022/06/23 08:35:37;;;;;;;4.20;3.17;;;22.40;93.10;;;;;;5067214;28;20099;-36
2022/06/23 08:38:26;;;;;;;3.60;2.85;;;22.50;93.10;;;;;;5067661;28;20094;-36
2022/06/23 08:41:01;;;;;;;3.08;2.40;;;22.60;92.90;;;;;;5067876;28;20484;-35
2022/06/23 08:43:45;;;;;;;4.20;2.75;;;22.70;92.80;;;;;;5068132;28;20029;-36
2022/06/23 08:46:23;;;;;;;3.42;3.10;;;22.80;92.80;;;;;;5067663;28;20024;-35
2022/06/23 08:49:19;;;;;;;3.88;3.03;;;22.90;92.80;;;;;;5048251;28;20400;-35
2022/06/23 08:52:01;;;;;;;3.97;2.83;;;22.90;92.80;;;;;;5062294;28;20044;-35
2022/06/23 08:54:39;;;;;;;8.82;3.60;;;22.90;92.90;;;;;;5066885;28;20120;-35
2022/06/23 08:57:23;;;;;;;4.13;3.05;;;23.00;92.90;;;;;;5068484;28;20028;-37
2022/06/23 08:59:51;;;;;;;3.65;3.00;;;23.00;92.90;;;;;;5068016;28;20052;-35
2022/06/23 09:02:37;;;;;;;3.50;2.72;;;23.00;93.00;;;;;;5066800;28;20012;-36
2022/06/23 09:05:14;;;;;;;3.67;3.30;;;23.20;93.00;;;;;;5005180;28;20044;-36
2022/06/23 09:07:51;;;;;;;3.72;2.70;;;23.30;92.90;;;;;;5063409;28;20032;-36
2022/06/23 09:10:58;;;;;;;3.30;3.00;;;23.40;92.80;;;;;;5066969;28;20123;-36
2022/06/23 09:13:45;;;;;;;3.40;2.88;;;23.50;92.90;;;;;;5056649;28;20043;-34
2022/06/23 09:16:35;;;;;;;4.65;3.50;;;23.60;92.80;;;;;;5066952;28;20039;-35
2022/06/23 09:19:28;;;;;;;5.68;3.20;;;23.70;92.90;;;;;;5072580;28;20036;-36
2022/06/23 09:22:11;;;;;;;4.50;3.40;;;23.90;92.80;;;;;;5075363;28;20039;-36
2022/06/23 09:24:45;;;;;;;4.80;3.25;;;24.00;92.70;;;;;;5066596;28;20017;-36
2022/06/23 09:27:32;;;;;;;4.57;3.45;;;24.10;92.80;;;;;;5067404;28;20036;-36
2022/06/23 09:30:05;;;;;;;4.95;2.90;;;24.10;92.80;;;;;;5066460;28;20061;-36
2022/06/23 09:32:33;;;;;;;3.05;2.70;;;24.20;92.60;;;;;;5066905;28;20063;-36
2022/06/23 09:35:17;;;;;;;3.35;2.90;;;24.30;92.50;;;;;;5067235;28;20032;-35
2022/06/23 09:38:02;;;;;;;6.00;3.17;;;24.30;92.50;;;;;;5066956;28;20043;-36
2022/06/23 09:41:02;;;;;;;3.55;2.50;;;24.30;92.60;;;;;;5066641;28;20044;-35
2022/06/23 09:43:52;;;;;;;3.88;2.40;;;24.30;92.70;;;;;;5065961;28;20038;-34
2022/06/23 09:46:32;;;;;;;3.75;3.00;;;24.30;92.70;;;;;;5066778;28;20511;-36
2022/06/23 09:49:05;;;;;;;6.03;2.95;;;24.30;92.60;;;;;;5066680;28;20426;-37
2022/06/23 09:51:59;;;;;;;3.97;2.80;;;24.30;92.50;;;;;;5066088;28;20040;-34
2022/06/23 09:54:50;;;;;;;6.07;2.65;;;24.40;92.50;;;;;;5066127;28;20031;-35
2022/06/23 09:57:31;;;;;;;4.13;2.55;;;24.50;92.40;;;;;;5021438;28;20088;-35
2022/06/23 10:00:00;;;;;;;4.68;2.72;;;24.60;92.30;;;;;;5016594;28;20390;-36
2022/06/23 10:02:28;;;;;;;4.93;2.83;;;24.60;92.20;;;;;;5026331;28;20018;-36
2022/06/23 10:05:23;;;;;;;3.00;2.65;;;24.70;92.10;;;;;;5026076;28;20033;-35
2022/06/23 10:08:12;;;;;;;4.00;2.55;;;24.90;92.10;;;;;;5026617;28;20041;-35
2022/06/23 10:10:56;;;;;;;3.08;2.33;;;24.90;91.90;;;;;;5017136;28;20225;-35
2022/06/23 10:13:48;;;;;;;4.57;2.63;;;25.00;92.00;;;;;;5024822;28;20036;-37
2022/06/23 10:16:43;;;;;;;5.70;3.30;;;25.00;91.90;;;;;;5024940;28;20045;-37
2022/06/23 10:19:11;;;;;;;4.45;2.80;;;25.10;92.00;;;;;;5025582;28;20042;-34
2022/06/23 10:21:59;;;;;;;3.80;2.38;;;25.20;91.80;;;;;;5026060;28;20029;-37
2022/06/23 10:24:24;;;;;;;2.83;2.22;;;25.30;91.80;;;;;;5025323;28;20052;-36
2022/06/23 10:27:18;;;;;;;4.78;2.47;;;25.30;91.80;;;;;;5026013;28;20540;-35
2022/06/23 10:30:12;;;;;;;4.15;2.40;;;25.20;92.10;;;;;;5025809;28;20441;-35
2022/06/23 10:32:52;;;;;;;3.55;2.67;;;25.40;91.90;;;;;;5025608;28;20477;-35
2022/06/23 10:35:37;;;;;;;3.92;2.30;;;25.40;91.80;;;;;;5018575;28;20726;-35
2022/06/23 10:38:22;;;;;;;5.53;3.00;;;25.40;91.70;;;;;;5024888;28;20180;-37
2022/06/23 10:41:12;;;;;;;4.28;2.42;;;25.50;91.80;;;;;;5019311;28;20087;-35
2022/06/23 10:43:43;;;;;;;3.72;2.60;;;25.70;91.70;;;;;;5022829;28;20060;-34
2022/06/23 10:46:14;;;;;;;6.38;2.90;;;25.80;91.70;;;;;;5017506;28;20025;-43
2022/06/23 10:48:50;;;;;;;4.07;2.83;;;25.90;91.50;;;;;;5024671;28;20562;-33
2022/06/23 10:51:34;;;;;;;4.65;2.78;;;26.00;91.50;;;;;;5023416;28;20049;-35
2022/06/23 10:54:05;;;;;;;4.75;2.50;;;26.00;91.50;;;;;;5025091;28;20025;-35
2022/06/23 10:56:57;;;;;;;3.08;2.30;;;26.10;91.50;;;;;;5025649;28;20025;-37
2022/06/23 10:59:47;;;;;;;5.13;2.70;;;26.20;91.50;;;;;;5025966;28;20147;-35
2022/06/23 11:02:31;;;;;;;4.95;2.92;;;26.40;91.10;;;;;;5016664;28;20025;-36
2022/06/23 11:05:31;;;;;;;4.82;2.80;;;26.60;90.60;;;;;;5025887;28;20029;-36
2022/06/23 11:08:20;;;;;;;4.40;2.50;;;26.80;90.40;;;;;;5009857;28;20550;-36
2022/06/23 11:11:04;;;;;;;3.13;2.40;;;27.10;90.30;;;;;;5014979;28;20045;-36
2022/06/23 11:13:52;;;;;;;4.47;2.75;;;27.20;90.20;;;;;;5006136;28;20105;-35
2022/06/23 11:16:38;;;;;;;3.83;2.17;;;27.40;90.00;;;;;;5016716;28;20091;-35
2022/06/23 11:19:36;;;;;;;3.50;2.25;;;27.50;89.90;;;;;;5005793;28;20044;-36
2022/06/23 11:22:28;;;;;;;3.17;2.20;;;27.50;89.80;;;;;;5023197;28;20018;-36
2022/06/23 11:25:15;;;;;;;4.50;2.30;;;27.40;89.90;;;;;;5024689;28;20033;-35
2022/06/23 11:28:09;;;;;;;4.35;2.50;;;27.40;89.80;;;;;;5013194;28;21201;-35
2022/06/23 11:30:43;;;;;;;5.43;2.60;;;27.50;89.50;;;;;;5026133;28;20039;-36
2022/06/23 11:33:21;;;;;;;3.00;2.50;;;27.60;89.10;;;;;;5020152;28;20036;-36
2022/06/23 11:36:11;;;;;;;4.70;2.55;;;27.70;88.70;;;;;;5026567;28;20048;-37
2022/06/23 11:38:49;;;;;;;9.48;2.92;;;27.80;88.40;;;;;;5021652;28;20025;-36
2022/06/23 11:41:41;;;;;;;4.82;2.63;;;27.90;88.10;;;;;;5024762;28;20026;-36
2022/06/23 11:44:22;;;;;;;;;;;28.10;87.60;;;;;;5025870;28;20137;-37
2022/06/23 11:47:00;;;;;;;5.18;2.85;;;28.20;87.40;;;;;;5021289;28;19945;-36
2022/06/23 11:49:38;;;;;;;5.28;2.80;;;28.30;87.10;;;;;;5024913;28;20040;-37
2022/06/23 11:52:42;;;;;;;3.85;2.80;;;28.30;87.10;;;;;;5021236;28;20125;-36
2022/06/23 11:55:22;;;;;;;3.50;2.50;;;28.40;87.20;;;;;;5009693;28;20120;-35
2022/06/23 11:58:16;;;;;;;5.28;2.78;;;28.50;87.30;;;;;;5025470;28;20022;-36
2022/06/23 12:01:10;;;;;;;3.50;2.70;;;28.40;87.00;;;;;;5029118;28;20496;-35
2022/06/23 12:04:00;;;;;;;4.80;3.08;;;28.40;87.10;;;;;;5021536;28;20038;-38
2022/06/23 12:07:08;;;;;;;4.50;2.38;;;28.30;87.00;;;;;;5014643;28;20037;-36
2022/06/23 12:09:34;;;;;;;3.63;2.53;;;28.40;86.70;;;;;;5020779;28;20108;-36
2022/06/23 12:12:02;;;;;;;5.57;3.10;;;28.40;86.80;;;;;;5028483;28;20460;-37
2022/06/23 12:14:28;;;;;;;4.45;2.70;;;28.40;86.90;;;;;;5028608;28;20057;-35
2022/06/23 12:17:15;;;;;;;3.63;2.88;;;28.60;86.60;;;;;;5028745;28;20022;-36
2022/06/23 12:20:00;;;;;;;3.72;2.58;;;28.80;86.00;;;;;;5018364;28;20619;-37
2022/06/23 12:22:46;;;;;;;4.93;2.50;;;28.90;85.80;;;;;;5027918;28;20022;-35
2022/06/23 12:25:47;;;;;;;7.90;3.30;;;29.00;85.70;;;;;;5002751;28;20036;-35
2022/06/23 12:28:36;;;;;;;3.90;2.50;;;29.00;84.90;;;;;;5021058;28;20038;-37
2022/06/23 12:31:10;;;;;;;7.55;2.95;;;29.10;84.60;;;;;;4995915;28;20044;-36
2022/06/23 12:33:44;;;;;;;4.68;2.60;;;29.10;84.20;;;;;;5019574;28;20025;-35
2022/06/23 12:36:26;;;;;;;3.90;2.05;;;29.10;83.70;;;;;;5027070;28;20116;-35
2022/06/23 12:39:05;;;;;;;6.63;2.83;;;29.10;83.80;;;;;;5017102;28;20022;-35
2022/06/23 12:41:43;;;;;;;2.60;2.15;;;29.10;83.80;;;;;;5026869;28;20033;-37
2022/06/23 12:44:15;;;;;;;3.85;2.60;;;29.10;84.00;;;;;;5017619;28;20022;-35
2022/06/23 12:46:55;;;;;;;4.50;2.40;;;29.10;84.20;;;;;;5027761;28;20025;-36
2022/06/23 12:49:53;;;;;;;3.05;2.10;;;29.10;83.90;;;;;;5016529;28;20651;-37
2022/06/23 12:52:41;;;;;;;5.80;2.22;;;29.20;83.70;;;;;;5008331;28;20084;-35
2022/06/23 12:55:09;;;;;;;3.55;2.17;;;29.20;83.70;;;;;;5026054;28;20037;-36
2022/06/23 12:57:38;;;;;;;3.72;2.20;;;29.10;83.80;;;;;;5027870;28;20024;-36
2022/06/23 13:00:45;;;;;;;4.55;2.10;;;29.20;83.50;;;;;;5027279;28;20061;-36
2022/06/23 13:03:50;;;;;;;5.90;2.35;;;29.30;82.90;;;;;;5026297;28;20037;-35
2022/06/23 13:06:21;;;;;;;2.05;1.83;;;29.40;82.60;;;;;;5022721;28;20025;-36
2022/06/23 13:09:13;;;;;;;5.57;1.77;;;29.40;82.30;;;;;;5025693;28;20030;-37
2022/06/23 13:11:50;;;;;;;3.17;2.08;;;29.40;82.30;;;;;;5025433;28;20124;-35
2022/06/23 13:14:24;;;;;;;5.85;2.40;;;29.40;82.10;;;;;;5023075;28;20065;-36
2022/06/23 13:17:08;;;;;;;3.67;2.15;;;29.60;81.70;;;;;;5024445;28;20113;-35
2022/06/23 13:19:50;;;;;;;2.92;2.20;;;29.80;81.00;;;;;;5019632;28;20721;-36
2022/06/23 13:22:15;;;;;;;3.20;1.90;;;29.90;80.70;;;;;;5021641;28;20060;-36
2022/06/23 13:24:43;;;;;;;5.03;2.50;;;30.00;80.70;;;;;;5023609;28;20386;-37
2022/06/23 13:27:19;;;;;;;4.57;2.20;;;30.00;80.60;;;;;;5020207;28;20041;-36
2022/06/23 13:29:48;;;;;;;3.80;1.80;;;30.10;80.80;;;;;;5023303;28;20029;-37
2022/06/23 13:32:22;;;;;;;4.55;2.30;;;30.10;80.80;;;;;;5026013;28;20479;-36
2022/06/23 13:35:05;;;;;;;3.15;1.80;;;30.10;80.70;;;;;;5022146;28;20030;-36
2022/06/23 13:37:59;;;;;;;4.18;1.73;;;30.10;80.80;;;;;;5013865;28;20037;-36
2022/06/23 13:40:54;;;;;;;4.07;2.03;;;30.00;80.80;;;;;;5011263;28;20026;-40
2022/06/23 13:43:41;;;;;;;6.78;2.80;;;29.90;79.90;;;;;;5007082;28;20049;-37
2022/06/23 13:46:19;;;;;;;3.15;2.20;;;29.90;79.40;;;;;;5017293;28;20033;-36
2022/06/23 13:49:00;;;;;;;5.20;2.60;;;29.90;79.50;;;;;;5009603;28;20033;-36
2022/06/23 13:51:40;;;;;;;3.33;2.13;;;30.00;78.70;;;;;;5021678;28;20037;-36
2022/06/23 13:54:20;;;;;;;2.55;1.80;;;30.10;78.80;;;;;;5007855;28;20340;-36
2022/06/23 13:56:55;;;;;;;3.00;2.10;;;30.10;79.10;;;;;;5023121;28;20068;-35
2022/06/23 13:59:37;;;;;;;6.75;2.00;;;30.00;79.10;;;;;;5025896;28;20049;-36